Time;durP1;ratioP1;P1;durP2;ratioP2;P2;SDS_P1;SDS_P2;PMS_P1;PMS_P2;Temp;Humidity;BMP_temperature;BMP_pressure;BME280_temperature;BME280_humidity;BME280_pressure;Samples;Min_cycle;Max_cycle;Signal;HPM_P1;HPM_P2
2022/06/05 00:00:52;;;;;;;17.20;12.32;;;18.30;99.90;;;;;;5003643;28;20025;-83
2022/06/05 00:03:22;;;;;;;15.98;11.55;;;18.30;99.90;;;;;;5003935;28;20101;-84
2022/06/05 00:06:07;;;;;;;17.02;11.93;;;18.20;99.90;;;;;;5003431;28;20027;-84
2022/06/05 00:08:54;;;;;;;18.40;12.55;;;18.30;99.90;;;;;;5002753;28;20061;-84
2022/06/05 00:11:22;;;;;;;17.63;11.75;;;18.30;99.90;;;;;;5002780;28;20029;-84
2022/06/05 00:13:52;;;;;;;20.30;12.27;;;18.40;99.90;;;;;;5002354;28;20033;-84
2022/06/05 00:16:20;;;;;;;18.23;11.07;;;18.40;99.90;;;;;;5002155;28;20026;-84
2022/06/05 00:18:46;;;;;;;19.73;12.23;;;18.40;99.90;;;;;;5002256;28;20204;-84
2022/06/05 00:21:13;;;;;;;18.20;12.65;;;18.40;99.90;;;;;;5003034;28;20158;-84
2022/06/05 00:23:39;;;;;;;19.92;13.02;;;18.30;99.90;;;;;;5003014;28;20033;-84
2022/06/05 00:26:42;;;;;;;19.02;12.48;;;18.30;99.90;;;;;;5003108;28;20089;-84
2022/06/05 00:29:27;;;;;;;20.65;12.75;;;18.30;99.90;;;;;;5001154;28;20037;-84
2022/06/05 00:32:11;;;;;;;18.55;12.27;;;18.20;99.90;;;;;;5002230;28;20046;-84
2022/06/05 00:34:37;;;;;;;18.20;13.00;;;18.20;99.90;;;;;;5001722;28;20086;-84
2022/06/05 00:37:08;;;;;;;18.52;13.57;;;18.20;99.90;;;;;;5001945;28;20272;-84
2022/06/05 00:39:50;;;;;;;16.02;13.77;;;18.20;99.90;;;;;;5002097;28;20026;-84
2022/06/05 00:42:19;;;;;;;19.02;12.40;;;18.10;99.90;;;;;;5002393;28;20217;-84
2022/06/05 00:44:56;;;;;;;20.70;12.30;;;18.10;99.90;;;;;;4982755;28;20025;-84
2022/06/05 00:47:27;;;;;;;20.33;13.18;;;18.10;99.90;;;;;;4983053;28;20022;-84
2022/06/05 00:50:05;;;;;;;21.95;12.25;;;18.10;99.90;;;;;;4983841;28;20034;-84
2022/06/05 00:52:33;;;;;;;18.52;12.95;;;18.00;99.90;;;;;;4983518;28;20062;-84
2022/06/05 00:54:59;;;;;;;18.52;12.88;;;17.90;99.90;;;;;;4983559;28;20066;-84
2022/06/05 00:57:31;;;;;;;20.38;14.55;;;17.90;99.90;;;;;;4982747;28;20030;-84
2022/06/05 00:59:59;;;;;;;20.52;14.40;;;17.90;99.90;;;;;;4984217;28;20052;-84
2022/06/05 01:02:25;;;;;;;25.58;15.25;;;17.80;99.90;;;;;;4983336;28;20307;-84
2022/06/05 01:04:51;;;;;;;24.88;15.63;;;17.80;99.90;;;;;;4983534;28;20314;-84
2022/06/05 01:07:19;;;;;;;19.02;13.75;;;17.80;99.90;;;;;;4983141;28;20231;-84
2022/06/05 01:09:47;;;;;;;23.30;14.82;;;17.80;99.90;;;;;;4983230;28;20110;-84
2022/06/05 01:12:48;;;;;;;27.25;17.52;;;17.90;99.90;;;;;;4982950;28;20234;-84
2022/06/05 01:15:28;;;;;;;21.50;15.02;;;17.90;99.90;;;;;;4994869;28;20038;-84
2022/06/05 01:18:19;;;;;;;23.55;16.25;;;17.90;99.90;;;;;;5001060;28;20026;-84
2022/06/05 01:20:54;;;;;;;27.40;18.38;;;17.90;99.90;;;;;;5000850;28;20033;-84
2022/06/05 01:23:38;;;;;;;26.85;17.02;;;17.90;99.90;;;;;;5000186;28;20017;-84
2022/06/05 01:26:09;;;;;;;23.70;16.92;;;17.90;99.90;;;;;;5001545;28;20037;-84
2022/06/05 01:28:41;;;;;;;22.35;17.00;;;17.90;99.90;;;;;;4999332;28;20034;-84
2022/06/05 01:31:20;;;;;;;23.58;16.33;;;17.90;99.90;;;;;;5000689;28;20105;-84
2022/06/05 01:33:58;;;;;;;23.38;17.25;;;17.90;99.90;;;;;;5001644;28;20026;-84
2022/06/05 01:36:46;;;;;;;22.45;16.95;;;17.90;99.90;;;;;;4990001;28;20023;-84
2022/06/05 01:39:38;;;;;;;22.40;16.17;;;17.90;99.90;;;;;;4996954;28;20036;-84
2022/06/05 01:42:35;;;;;;;22.55;17.55;;;17.80;99.90;;;;;;5001156;28;20046;-84
2022/06/05 01:45:06;;;;;;;23.75;16.95;;;17.80;99.90;;;;;;4988963;28;20101;-84
2022/06/05 01:47:54;;;;;;;20.83;15.60;;;17.80;99.90;;;;;;5000006;28;20030;-84
2022/06/05 01:50:34;;;;;;;27.95;17.77;;;17.80;99.90;;;;;;5002256;28;20064;-85
2022/06/05 01:53:10;;;;;;;21.02;17.17;;;17.80;99.90;;;;;;4982915;28;20018;-84
2022/06/05 01:56:00;;;;;;;25.58;17.17;;;17.80;99.90;;;;;;4997081;28;20026;-84
2022/06/05 01:58:38;;;;;;;20.92;16.10;;;17.80;99.90;;;;;;5001489;28;20048;-84
2022/06/05 02:01:10;;;;;;;26.35;16.58;;;17.80;99.90;;;;;;5000490;28;20049;-84
2022/06/05 02:03:48;;;;;;;25.48;17.17;;;17.70;99.90;;;;;;5001443;28;20310;-84
2022/06/05 02:06:19;;;;;;;23.77;15.43;;;17.70;99.90;;;;;;4982291;28;20059;-84
2022/06/05 02:08:58;;;;;;;27.17;16.67;;;17.70;99.90;;;;;;4996711;28;20054;-84
2022/06/05 02:11:27;;;;;;;21.02;15.48;;;17.70;99.90;;;;;;5001552;28;20084;-84
2022/06/05 02:14:00;;;;;;;18.63;15.90;;;17.70;99.90;;;;;;5001027;28;20195;-84
2022/06/05 02:16:28;;;;;;;22.02;16.25;;;17.70;99.90;;;;;;4999809;28;20241;-84
2022/06/05 02:18:54;;;;;;;23.45;16.17;;;17.60;99.90;;;;;;5000697;28;20111;-83
2022/06/05 02:21:20;;;;;;;19.75;14.60;;;17.70;99.90;;;;;;5001434;28;20025;-84
2022/06/05 02:23:46;;;;;;;22.75;16.15;;;17.70;99.90;;;;;;5000456;28;20261;-84
2022/06/05 02:26:12;;;;;;;21.08;16.15;;;17.80;99.90;;;;;;5001110;28;20022;-84
2022/06/05 02:28:38;;;;;;;20.98;14.75;;;17.80;99.90;;;;;;4999657;28;20034;-84
2022/06/05 02:31:16;;;;;;;19.00;14.77;;;17.90;99.90;;;;;;5000965;28;20049;-84
2022/06/05 02:34:01;;;;;;;24.48;14.85;;;17.80;99.90;;;;;;5000719;28;20027;-84
2022/06/05 02:36:43;;;;;;;23.38;14.48;;;17.80;99.90;;;;;;5000693;28;20018;-84
2022/06/05 02:39:42;;;;;;;20.70;13.15;;;17.80;99.90;;;;;;5000588;28;20048;-84
2022/06/05 02:42:39;;;;;;;19.80;13.52;;;17.80;99.90;;;;;;4994420;28;20257;-84
2022/06/05 02:45:12;;;;;;;21.73;13.80;;;17.80;99.90;;;;;;5000345;28;20370;-84
2022/06/05 02:48:05;;;;;;;17.27;14.00;;;17.80;99.90;;;;;;5000498;28;20033;-83
2022/06/05 02:51:09;;;;;;;21.70;14.50;;;17.80;99.90;;;;;;5001011;28;20038;-83
2022/06/05 02:53:48;;;;;;;20.20;14.23;;;17.80;99.90;;;;;;4959065;28;20468;-83
2022/06/05 02:56:14;;;;;;;24.80;14.70;;;17.80;99.90;;;;;;4994406;28;20038;-83
2022/06/05 02:58:40;;;;;;;20.90;14.57;;;17.90;99.90;;;;;;5001761;28;20329;-83
2022/06/05 03:03:50;;;;;;;17.25;12.73;;;17.90;99.90;;;;;;5004100;28;20052;-83
2022/06/05 03:06:16;;;;;;;18.70;12.52;;;17.90;99.90;;;;;;5003900;28;20035;-83
2022/06/05 03:08:41;;;;;;;15.07;11.52;;;17.90;99.90;;;;;;5003812;28;20041;-83
2022/06/05 03:11:07;;;;;;;15.50;10.77;;;17.80;99.90;;;;;;5004073;28;20351;-83
2022/06/05 03:13:33;;;;;;;15.73;10.25;;;17.90;99.90;;;;;;5002911;28;20117;-83
2022/06/05 03:15:59;;;;;;;11.25;8.30;;;17.90;99.90;;;;;;5003533;28;20018;-83
2022/06/05 03:18:25;;;;;;;9.80;8.80;;;17.80;99.90;;;;;;5003151;28;20041;-83
2022/06/05 03:20:58;;;;;;;12.30;7.65;;;17.80;99.90;;;;;;5004419;28;20188;-83
2022/06/05 03:23:25;;;;;;;12.07;7.05;;;17.80;99.90;;;;;;5003504;28;20034;-83
2022/06/05 03:25:51;;;;;;;11.75;7.35;;;17.80;99.90;;;;;;5004077;28;20027;-83
2022/06/05 03:28:17;;;;;;;9.40;7.70;;;17.90;99.90;;;;;;5003538;28;20333;-84
2022/06/05 03:30:43;;;;;;;11.23;8.05;;;17.90;99.90;;;;;;5002673;28;20125;-84
2022/06/05 03:33:10;;;;;;;10.65;8.40;;;17.80;99.90;;;;;;5003983;28;20022;-84
2022/06/05 03:35:37;;;;;;;11.02;7.85;;;17.70;99.90;;;;;;5003889;28;20317;-83
2022/06/05 03:38:04;;;;;;;10.43;7.57;;;17.60;99.90;;;;;;5003800;28;20085;-81
2022/06/05 03:40:30;;;;;;;15.50;8.13;;;17.60;99.90;;;;;;5004164;28;20190;-81
2022/06/05 03:42:56;;;;;;;9.18;7.60;;;17.60;99.90;;;;;;5004003;28;20206;-81
2022/06/05 03:45:22;;;;;;;11.27;8.07;;;17.50;99.90;;;;;;5004040;28;20030;-81
2022/06/05 03:47:48;;;;;;;11.13;7.40;;;17.50;99.90;;;;;;5003832;28;20033;-81
2022/06/05 03:50:16;;;;;;;10.88;8.43;;;17.60;99.90;;;;;;5003863;28;20049;-81
2022/06/05 03:52:42;;;;;;;15.18;8.10;;;17.50;99.90;;;;;;5003649;28;20264;-81
2022/06/05 03:55:09;;;;;;;10.02;7.88;;;17.50;99.90;;;;;;5004072;28;20274;-81
2022/06/05 03:57:34;;;;;;;9.48;8.13;;;17.50;99.90;;;;;;5003801;28;20101;-81
2022/06/05 04:00:00;;;;;;;12.40;8.32;;;17.50;99.90;;;;;;5003617;28;20286;-81
2022/06/05 04:02:26;;;;;;;10.88;8.15;;;17.50;99.90;;;;;;5003262;28;20026;-81
2022/06/05 04:04:52;;;;;;;12.52;8.70;;;17.60;99.90;;;;;;5003348;28;20338;-81
2022/06/05 04:07:19;;;;;;;9.70;6.97;;;17.50;99.90;;;;;;5003183;28;20092;-81
2022/06/05 04:09:44;;;;;;;11.70;7.85;;;17.50;99.90;;;;;;5002387;28;20098;-81
2022/06/05 04:12:10;;;;;;;11.82;8.63;;;17.50;99.90;;;;;;5003548;28;20030;-81
2022/06/05 04:14:36;;;;;;;12.80;8.30;;;17.60;99.90;;;;;;5003020;28;20034;-81
2022/06/05 04:17:01;;;;;;;12.60;8.60;;;17.50;99.90;;;;;;5003013;28;20093;-83
2022/06/05 04:19:27;;;;;;;10.68;8.57;;;17.50;99.90;;;;;;5002599;28;20300;-84
2022/06/05 04:21:53;;;;;;;13.15;8.18;;;17.50;99.90;;;;;;5003423;28;20049;-84
2022/06/05 04:24:20;;;;;;;11.13;7.63;;;17.50;99.90;;;;;;5001538;28;20042;-83
2022/06/05 04:26:45;;;;;;;11.25;9.77;;;17.50;99.90;;;;;;5003205;28;20113;-84
2022/06/05 04:29:12;;;;;;;15.77;9.20;;;17.50;99.90;;;;;;5002975;28;20065;-84
2022/06/05 04:31:41;;;;;;;11.70;8.18;;;17.40;99.90;;;;;;5001325;28;20046;-84
2022/06/05 04:34:10;;;;;;;11.20;8.25;;;17.40;99.90;;;;;;5003122;28;20045;-84
2022/06/05 04:36:35;;;;;;;12.07;8.35;;;17.40;99.90;;;;;;5003264;28;20025;-84
2022/06/05 04:39:02;;;;;;;10.13;8.77;;;17.40;99.90;;;;;;5003203;28;20262;-84
2022/06/05 04:41:27;;;;;;;11.15;9.23;;;17.40;99.90;;;;;;5002570;28;20093;-84
2022/06/05 04:43:54;;;;;;;9.30;8.32;;;17.40;99.90;;;;;;5002842;28;20210;-84
2022/06/05 04:46:22;;;;;;;12.35;8.88;;;17.40;99.90;;;;;;5002334;28;20034;-84
2022/06/05 04:48:48;;;;;;;11.30;8.80;;;17.40;99.90;;;;;;5002762;28;20302;-84
2022/06/05 04:51:15;;;;;;;13.95;9.60;;;17.40;99.90;;;;;;5003165;28;20018;-84
2022/06/05 04:53:42;;;;;;;12.35;8.50;;;17.50;99.90;;;;;;5002574;28;20065;-84
2022/06/05 04:56:11;;;;;;;11.27;9.13;;;17.50;99.90;;;;;;5003319;28;20026;-84
2022/06/05 04:58:36;;;;;;;16.85;10.50;;;17.50;99.90;;;;;;5001291;28;20034;-84
2022/06/05 05:01:16;;;;;;;14.32;10.25;;;17.40;99.90;;;;;;5001478;28;20037;-84
2022/06/05 05:03:42;;;;;;;17.25;10.80;;;17.50;99.90;;;;;;5001832;28;20314;-84
2022/06/05 05:06:08;;;;;;;11.88;9.75;;;17.50;99.90;;;;;;5000652;28;20018;-84
2022/06/05 05:08:34;;;;;;;16.42;11.05;;;17.50;99.90;;;;;;5000708;28;20030;-84
2022/06/05 05:11:00;;;;;;;11.68;10.43;;;17.40;99.90;;;;;;5001673;28;20045;-83
2022/06/05 05:13:26;;;;;;;12.90;9.88;;;17.40;99.90;;;;;;5001492;28;20073;-84
2022/06/05 05:15:53;;;;;;;13.88;10.10;;;17.50;99.90;;;;;;5002345;28;20025;-84
2022/06/05 05:18:20;;;;;;;13.60;9.65;;;17.50;99.90;;;;;;5002044;28;20045;-84
2022/06/05 05:20:46;;;;;;;12.85;10.23;;;17.60;99.90;;;;;;5001933;28;20378;-84
2022/06/05 05:23:12;;;;;;;14.07;9.82;;;17.60;99.90;;;;;;5000813;28;20394;-84
2022/06/05 05:25:38;;;;;;;14.70;10.48;;;17.60;99.90;;;;;;5001889;28;20081;-84
2022/06/05 05:28:06;;;;;;;15.98;10.75;;;17.60;99.90;;;;;;5001290;28;20314;-84
2022/06/05 05:30:33;;;;;;;11.45;10.30;;;17.60;99.90;;;;;;5001893;28;20414;-84
2022/06/05 05:32:58;;;;;;;13.35;10.45;;;17.60;99.90;;;;;;5001537;28;20191;-84
2022/06/05 05:35:24;;;;;;;13.98;10.85;;;17.60;99.90;;;;;;5001911;28;20077;-84
2022/06/05 05:37:50;;;;;;;20.48;10.57;;;17.60;99.90;;;;;;5001764;28;20026;-84
2022/06/05 05:43:00;;;;;;;14.68;10.30;;;17.70;99.90;;;;;;5001710;28;20042;-84
2022/06/05 05:45:25;;;;;;;17.10;10.77;;;17.70;99.90;;;;;;5001404;28;20090;-84
2022/06/05 05:47:51;;;;;;;15.15;10.20;;;17.80;99.90;;;;;;5001141;28;20230;-84
2022/06/05 05:50:17;;;;;;;13.73;10.57;;;17.80;99.90;;;;;;5001330;28;20238;-84
2022/06/05 05:52:44;;;;;;;13.02;9.73;;;17.70;99.90;;;;;;5001180;28;20045;-84
2022/06/05 05:55:18;;;;;;;16.23;9.88;;;17.70;99.90;;;;;;5001405;28;20097;-84
2022/06/05 05:57:46;;;;;;;13.38;9.48;;;17.70;99.90;;;;;;5000853;28;20312;-84
2022/06/05 06:00:14;;;;;;;11.02;9.70;;;17.70;99.90;;;;;;5001694;28;20053;-84
2022/06/05 06:02:41;;;;;;;11.13;9.30;;;17.70;99.90;;;;;;5001438;28;20081;-84
2022/06/05 06:05:08;;;;;;;12.05;8.98;;;17.80;99.90;;;;;;5001497;28;20026;-84
2022/06/05 06:07:34;;;;;;;13.27;8.65;;;17.80;99.90;;;;;;5001307;28;20116;-84
2022/06/05 06:10:00;;;;;;;13.43;8.35;;;17.90;99.90;;;;;;5001552;28;20263;-84
2022/06/05 06:12:26;;;;;;;13.20;9.23;;;17.90;99.90;;;;;;5000868;28;20080;-84
2022/06/05 06:14:52;;;;;;;10.00;8.50;;;17.90;99.90;;;;;;5001052;28;20053;-84
2022/06/05 06:17:18;;;;;;;13.23;8.52;;;17.90;99.90;;;;;;5000617;28;20024;-84
2022/06/05 06:19:44;;;;;;;10.77;8.52;;;18.00;99.90;;;;;;5000298;28;20033;-84
2022/06/05 06:22:10;;;;;;;12.68;8.43;;;18.10;99.90;;;;;;5000058;28;20048;-84
2022/06/05 06:24:36;;;;;;;10.77;8.00;;;18.30;99.90;;;;;;4981417;28;20023;-84
2022/06/05 06:27:02;;;;;;;15.40;8.43;;;18.40;99.90;;;;;;4981700;28;20027;-84
2022/06/05 06:29:28;;;;;;;9.85;7.80;;;18.50;99.90;;;;;;4981627;28;20039;-84
2022/06/05 06:31:53;;;;;;;18.08;8.38;;;18.50;99.90;;;;;;4980723;28;20155;-81
2022/06/05 06:34:19;;;;;;;13.57;8.27;;;18.60;99.90;;;;;;4981810;28;20042;-81
2022/06/05 06:36:45;;;;;;;9.93;7.63;;;18.60;99.90;;;;;;4981759;28;20023;-82
2022/06/05 06:39:11;;;;;;;13.32;8.00;;;18.70;99.90;;;;;;4981856;28;20318;-81
2022/06/05 06:41:36;;;;;;;11.48;7.30;;;18.60;99.90;;;;;;4981848;28;20027;-81
2022/06/05 06:44:03;;;;;;;12.75;7.45;;;18.60;99.90;;;;;;4981237;28;20318;-81
2022/06/05 06:46:29;;;;;;;10.77;7.15;;;18.80;99.90;;;;;;4981748;28;20217;-81
2022/06/05 06:48:55;;;;;;;12.65;7.38;;;18.80;99.90;;;;;;4980872;28;20062;-81
2022/06/05 06:51:21;;;;;;;9.95;7.85;;;18.80;99.90;;;;;;4980064;28;20038;-81
2022/06/05 06:53:47;;;;;;;12.10;8.52;;;18.80;99.90;;;;;;4981255;28;20222;-82
2022/06/05 06:56:17;;;;;;;9.35;7.18;;;18.80;99.90;;;;;;4981572;28;20223;-81
2022/06/05 06:58:43;;;;;;;11.73;6.65;;;18.80;99.90;;;;;;4981457;28;20018;-81
2022/06/05 07:01:10;;;;;;;10.18;7.10;;;18.90;99.90;;;;;;4981998;28;20027;-81
2022/06/05 07:03:36;;;;;;;14.63;5.88;;;18.80;99.90;;;;;;4981702;28;20023;-81
2022/06/05 07:06:05;;;;;;;8.70;5.20;;;18.70;99.90;;;;;;4981559;28;20039;-81
2022/06/05 07:08:31;;;;;;;9.50;5.18;;;18.70;99.90;;;;;;4980753;28;20038;-81
2022/06/05 07:10:57;;;;;;;7.32;4.70;;;18.70;99.90;;;;;;4981193;28;20154;-81
2022/06/05 07:13:23;;;;;;;8.38;4.40;;;18.70;99.90;;;;;;4980833;28;20038;-81
2022/06/05 07:15:49;;;;;;;8.98;4.22;;;18.70;99.90;;;;;;4982185;28;20034;-88
2022/06/05 07:18:15;;;;;;;10.57;4.28;;;18.70;99.90;;;;;;4976562;28;20026;-80
2022/06/05 07:20:42;;;;;;;11.57;4.85;;;18.70;99.90;;;;;;4977068;28;20023;-80
2022/06/05 07:23:09;;;;;;;10.43;4.00;;;18.70;99.90;;;;;;4984668;28;20110;-80
2022/06/05 07:25:36;;;;;;;7.93;3.72;;;18.80;99.90;;;;;;4985088;28;20075;-80
2022/06/05 07:28:03;;;;;;;8.88;4.05;;;19.00;99.90;;;;;;4980620;28;20517;-80
2022/06/05 07:30:29;;;;;;;8.55;4.05;;;19.10;99.90;;;;;;4982925;28;20046;-80
2022/06/05 07:32:54;;;;;;;11.48;3.90;;;19.00;99.90;;;;;;4987098;28;20068;-80
2022/06/05 07:35:21;;;;;;;9.50;4.22;;;19.00;99.90;;;;;;4991069;28;20097;-81
2022/06/05 07:37:47;;;;;;;9.95;3.85;;;19.00;99.90;;;;;;4983469;28;20312;-80
2022/06/05 07:40:14;;;;;;;8.77;3.78;;;19.10;99.90;;;;;;4983947;28;20582;-80
2022/06/05 07:42:41;;;;;;;9.38;3.88;;;19.00;99.90;;;;;;4979568;28;20388;-81
2022/06/05 07:45:10;;;;;;;9.13;3.65;;;19.00;99.90;;;;;;4973190;28;20202;-81
2022/06/05 07:47:36;;;;;;;11.30;3.70;;;19.00;99.90;;;;;;4974305;28;20294;-80
2022/06/05 07:50:03;;;;;;;7.60;3.13;;;19.00;99.90;;;;;;4983341;28;20034;-81
2022/06/05 07:55:13;;;;;;;7.65;3.08;;;18.80;99.90;;;;;;4984989;28;20088;-80
2022/06/05 07:57:39;;;;;;;10.57;2.97;;;19.10;99.90;;;;;;4999276;28;20346;-79
2022/06/05 08:00:07;;;;;;;12.07;2.90;;;19.30;99.90;;;;;;4999307;28;20034;-80
2022/06/05 08:02:34;;;;;;;6.55;2.80;;;19.30;99.90;;;;;;5003352;28;20022;-80
2022/06/05 08:05:02;;;;;;;7.95;2.92;;;19.30;99.90;;;;;;5002114;28;20142;-80
2022/06/05 08:07:32;;;;;;;6.07;2.55;;;19.40;99.90;;;;;;5003684;28;20026;-80
2022/06/05 08:09:58;;;;;;;6.88;2.38;;;19.20;99.90;;;;;;5003494;28;20042;-80
2022/06/05 08:12:27;;;;;;;8.10;2.60;;;19.10;99.90;;;;;;5003554;28;20086;-80
2022/06/05 08:14:54;;;;;;;7.80;2.78;;;19.10;99.90;;;;;;5002734;28;20199;-82
2022/06/05 08:17:24;;;;;;;4.90;2.65;;;19.00;99.90;;;;;;5003135;28;20031;-81
2022/06/05 08:19:50;;;;;;;7.60;2.30;;;19.10;99.90;;;;;;5002650;28;20050;-80
2022/06/05 08:22:18;;;;;;;7.50;2.47;;;19.30;99.90;;;;;;5001925;28;20029;-80
2022/06/05 08:24:45;;;;;;;7.85;2.35;;;19.50;99.90;;;;;;5002611;28;20037;-80
2022/06/05 08:27:14;;;;;;;5.82;2.20;;;19.60;99.90;;;;;;5003235;28;20030;-80
2022/06/05 08:29:41;;;;;;;7.60;2.13;;;19.70;99.90;;;;;;5003266;28;20373;-80
2022/06/05 08:32:08;;;;;;;5.63;2.03;;;20.00;99.90;;;;;;5002358;28;20054;-76
2022/06/05 08:34:34;;;;;;;5.82;2.28;;;20.00;99.90;;;;;;5002181;28;20030;-76
2022/06/05 08:43:24;;;;;;;7.93;1.80;;;19.90;99.90;;;;;;5003079;28;20710;-76
2022/06/05 08:46:01;;;;;;;5.90;1.52;;;19.90;99.90;;;;;;4959426;28;20034;-76
2022/06/05 08:48:37;;;;;;;6.75;1.40;;;19.90;99.90;;;;;;4983490;28;20030;-76
2022/06/05 08:51:28;;;;;;;5.90;1.90;;;19.90;99.90;;;;;;4972872;28;20031;-77
2022/06/05 08:54:30;;;;;;;5.03;1.50;;;20.00;99.90;;;;;;4973281;28;20027;-77
2022/06/05 08:57:03;;;;;;;5.95;1.73;;;20.10;99.90;;;;;;4994747;28;20066;-77
2022/06/05 08:59:46;;;;;;;10.70;2.35;;;20.10;99.90;;;;;;5001879;28;20018;-76
2022/06/05 09:02:16;;;;;;;7.25;1.80;;;19.90;99.90;;;;;;5002265;28;20061;-76
2022/06/05 09:05:02;;;;;;;6.40;1.67;;;20.00;99.90;;;;;;4996180;28;20467;-76
2022/06/05 09:07:51;;;;;;;4.53;1.60;;;19.90;99.90;;;;;;4991343;28;20030;-77
2022/06/05 09:10:24;;;;;;;5.57;1.73;;;19.90;99.90;;;;;;4991478;28;20073;-84
2022/06/05 09:13:00;;;;;;;4.60;1.50;;;20.10;99.90;;;;;;4991363;28;20026;-76
2022/06/05 09:15:30;;;;;;;8.30;1.52;;;20.40;99.90;;;;;;4991133;28;20022;-76
2022/06/05 09:17:59;;;;;;;6.55;1.27;;;20.50;99.90;;;;;;4991229;28;20042;-77
2022/06/05 09:20:56;;;;;;;6.55;1.70;;;20.30;99.90;;;;;;4991166;28;20027;-77
2022/06/05 09:23:26;;;;;;;4.18;1.50;;;20.50;99.90;;;;;;4990605;28;20411;-77
2022/06/05 09:26:09;;;;;;;4.18;1.60;;;20.50;99.90;;;;;;4991252;28;20080;-76
2022/06/05 09:28:44;;;;;;;4.22;1.30;;;20.50;99.90;;;;;;4990848;28;20030;-76
2022/06/05 09:31:36;;;;;;;7.65;1.38;;;20.70;99.90;;;;;;5002074;28;20046;-76
2022/06/05 09:34:13;;;;;;;4.85;1.45;;;20.70;99.90;;;;;;5002429;28;20022;-76
2022/06/05 09:36:44;;;;;;;6.57;1.52;;;20.80;99.90;;;;;;4991777;28;20093;-76
2022/06/05 09:39:27;;;;;;;3.60;0.90;;;20.90;99.90;;;;;;4990952;28;20455;-77
2022/06/05 09:41:55;;;;;;;6.97;1.30;;;20.50;99.90;;;;;;4990695;28;20398;-77
2022/06/05 09:44:38;;;;;;;3.30;0.93;;;20.40;99.90;;;;;;4982499;28;20030;-77
2022/06/05 09:47:16;;;;;;;4.30;0.95;;;20.50;99.90;;;;;;4972312;28;20117;-78
2022/06/05 09:49:49;;;;;;;8.30;1.40;;;20.60;99.90;;;;;;4972111;28;20039;-78
2022/06/05 09:52:24;;;;;;;10.48;1.95;;;20.30;99.90;;;;;;4972214;28;20387;-78
2022/06/05 09:55:08;;;;;;;8.27;2.40;;;20.00;99.90;;;;;;4984913;28;20546;-77
2022/06/05 09:58:24;;;;;;;5.05;1.60;;;19.90;99.90;;;;;;4990544;28;20117;-77
2022/06/05 10:00:53;;;;;;;3.75;1.05;;;19.90;99.90;;;;;;4949528;29;20038;-77
2022/06/05 10:03:29;;;;;;;5.05;1.52;;;19.90;99.90;;;;;;4971074;28;20049;-77
2022/06/05 10:06:34;;;;;;;5.93;2.15;;;20.00;99.90;;;;;;4990663;28;20055;-78
2022/06/05 10:09:03;;;;;;;4.78;1.13;;;20.30;99.90;;;;;;4949607;29;20114;-77
2022/06/05 10:11:48;;;;;;;10.60;1.90;;;20.20;99.90;;;;;;4949443;29;20051;-79
2022/06/05 10:14:28;;;;;;;5.30;1.45;;;20.10;99.90;;;;;;4963658;28;20500;-78
2022/06/05 10:17:24;;;;;;;4.55;1.30;;;19.90;99.90;;;;;;4971772;28;20364;-78
2022/06/05 10:20:11;;;;;;;5.68;1.23;;;20.00;99.90;;;;;;4987277;28;20022;-79
2022/06/05 10:22:40;;;;;;;2.50;0.80;;;20.20;99.90;;;;;;4990344;28;20058;-77
2022/06/05 10:25:27;;;;;;;4.35;0.90;;;20.40;99.90;;;;;;4988864;28;20026;-77
2022/06/05 10:28:02;;;;;;;29.83;6.22;;;20.80;99.90;;;;;;4989023;28;20030;-77
2022/06/05 10:30:33;;;;;;;11.02;2.08;;;20.90;99.90;;;;;;4989877;28;20054;-78
2022/06/05 10:33:39;;;;;;;6.90;1.40;;;21.10;99.90;;;;;;4990173;28;20080;-77
2022/06/05 10:36:17;;;;;;;3.65;1.15;;;21.00;99.90;;;;;;4990064;28;20030;-78
2022/06/05 10:39:13;;;;;;;4.00;1.30;;;20.90;99.90;;;;;;4989942;28;20376;-77
2022/06/05 10:41:49;;;;;;;5.20;1.35;;;21.20;99.90;;;;;;4980663;28;20022;-77
2022/06/05 10:44:32;;;;;;;6.85;1.55;;;21.30;99.90;;;;;;4971174;28;20020;-77
2022/06/05 10:47:31;;;;;;;4.85;1.00;;;21.60;99.90;;;;;;4971424;28;20030;-77
2022/06/05 10:50:22;;;;;;;4.75;0.93;;;22.00;99.90;;;;;;4984607;28;20395;-78
2022/06/05 10:53:05;;;;;;;3.40;0.82;;;21.90;99.90;;;;;;4989955;28;20118;-79
2022/06/05 10:56:24;;;;;;;4.43;1.33;;;22.10;99.90;;;;;;4990295;28;20101;-80
2022/06/05 10:59:05;;;;;;;5.45;1.65;;;22.20;99.90;;;;;;4975708;28;20126;-79
2022/06/05 11:02:09;;;;;;;5.40;1.15;;;22.60;99.90;;;;;;4983603;28;20027;-79
2022/06/05 11:04:53;;;;;;;3.85;1.15;;;22.40;99.90;;;;;;4989967;28;20027;-79
2022/06/05 11:07:53;;;;;;;4.47;1.20;;;22.00;99.90;;;;;;4989776;28;20026;-80
2022/06/05 11:13:59;;;;;;;3.17;0.73;;;21.80;99.90;;;;;;4989889;28;20129;-79
2022/06/05 11:16:47;;;;;;;3.90;0.85;;;22.00;99.90;;;;;;4983868;28;20043;-79
2022/06/05 11:19:28;;;;;;;3.88;0.90;;;22.20;99.90;;;;;;4992207;28;20026;-79
2022/06/05 11:21:58;;;;;;;6.13;1.08;;;22.20;99.90;;;;;;4993507;28;20041;-80
2022/06/05 11:24:31;;;;;;;4.03;1.05;;;22.20;99.90;;;;;;4993625;28;20614;-80
2022/06/05 11:27:27;;;;;;;5.85;2.13;;;22.10;99.90;;;;;;4993405;28;20030;-79
2022/06/05 11:29:52;;;;;;;4.65;1.08;;;22.00;99.90;;;;;;4993156;28;20034;-79
2022/06/05 11:32:42;;;;;;;8.13;1.80;;;21.90;99.90;;;;;;4993033;28;20054;-81
2022/06/05 11:35:28;;;;;;;4.97;0.70;;;21.70;99.90;;;;;;4993036;28;20027;-80
2022/06/05 11:38:08;;;;;;;3.03;0.90;;;21.60;99.90;;;;;;4993164;28;20022;-80
2022/06/05 11:40:46;;;;;;;1.92;0.80;;;21.60;99.90;;;;;;4993114;28;20057;-81
2022/06/05 11:43:34;;;;;;;4.43;0.80;;;22.00;99.90;;;;;;4992895;28;20027;-81
2022/06/05 11:46:09;;;;;;;5.63;0.90;;;22.20;99.90;;;;;;4993160;28;20467;-80
2022/06/05 11:48:37;;;;;;;4.28;0.80;;;22.40;99.90;;;;;;4992965;28;20034;-80
2022/06/05 11:51:03;;;;;;;4.60;0.90;;;22.50;99.90;;;;;;4992942;28;20027;-81
2022/06/05 11:53:50;;;;;;;4.07;0.70;;;22.30;99.90;;;;;;4992907;28;20032;-80
2022/06/05 11:56:43;;;;;;;3.13;0.73;;;22.10;99.90;;;;;;4992887;28;20053;-80
2022/06/05 11:59:28;;;;;;;4.30;0.80;;;22.00;99.90;;;;;;4991336;28;20399;-81
2022/06/05 12:02:01;;;;;;;4.55;1.45;;;22.00;99.90;;;;;;4992706;28;20026;-80
2022/06/05 12:04:39;;;;;;;3.85;1.70;;;22.10;99.90;;;;;;4992799;28;20026;-81
2022/06/05 12:07:06;;;;;;;5.65;1.60;;;22.20;99.90;;;;;;4992717;28;20030;-80
2022/06/05 12:09:46;;;;;;;4.45;1.63;;;21.90;99.90;;;;;;4992494;28;20038;-81
2022/06/05 12:12:47;;;;;;;4.88;2.20;;;21.70;99.90;;;;;;4992521;28;20053;-80
2022/06/05 12:15:40;;;;;;;2.75;1.30;;;21.50;99.90;;;;;;4990063;28;20039;-80
2022/06/05 12:18:17;;;;;;;5.72;1.88;;;21.70;99.90;;;;;;4992359;28;20050;-81
2022/06/05 12:20:53;;;;;;;4.57;1.27;;;22.10;99.90;;;;;;4992390;28;20026;-80
2022/06/05 12:23:21;;;;;;;4.72;1.25;;;22.30;99.90;;;;;;4992381;28;20026;-80
2022/06/05 12:26:01;;;;;;;5.32;0.90;;;22.30;99.90;;;;;;4992351;28;20510;-80
2022/06/05 12:28:38;;;;;;;5.75;1.50;;;22.10;99.90;;;;;;4992034;28;20109;-81
2022/06/05 12:31:17;;;;;;;3.45;0.90;;;22.10;99.90;;;;;;4991020;28;20392;-81
2022/06/05 12:34:03;;;;;;;4.93;0.80;;;22.30;99.90;;;;;;4990735;28;20033;-80
2022/06/05 12:36:46;;;;;;;2.40;0.80;;;22.20;99.90;;;;;;4991999;28;20491;-80
2022/06/05 12:39:26;;;;;;;8.15;1.27;;;22.10;99.90;;;;;;4973118;28;20046;-80
2022/06/05 12:42:13;;;;;;;7.05;0.80;;;22.20;99.90;;;;;;4973570;28;20018;-80
2022/06/05 12:44:44;;;;;;;3.33;0.80;;;22.20;99.90;;;;;;4973206;28;20102;-82
2022/06/05 12:47:52;;;;;;;4.30;1.05;;;22.20;99.90;;;;;;4973095;28;20027;-80
2022/06/05 12:50:24;;;;;;;2.92;0.80;;;21.70;99.90;;;;;;4961139;28;20101;-80
2022/06/05 12:53:22;;;;;;;2.78;0.63;;;21.80;99.90;;;;;;4973143;28;20023;-80
2022/06/05 12:55:55;;;;;;;4.85;1.25;;;21.90;99.90;;;;;;4985999;28;20064;-81
2022/06/05 12:58:35;;;;;;;3.08;0.70;;;22.10;99.90;;;;;;4991781;28;20623;-80
2022/06/05 13:01:07;;;;;;;5.65;1.30;;;22.60;99.90;;;;;;4991605;28;20029;-80
2022/06/05 13:03:55;;;;;;;3.20;0.63;;;22.90;99.90;;;;;;4991509;28;20031;-80
2022/06/05 13:06:36;;;;;;;3.72;0.77;;;22.80;99.90;;;;;;4991668;28;20081;-80
2022/06/05 13:09:28;;;;;;;3.50;0.82;;;22.30;99.90;;;;;;4991283;28;20533;-79
2022/06/05 13:12:00;;;;;;;9.18;1.25;;;22.10;99.90;;;;;;4964064;28;20038;-80
2022/06/05 13:14:47;;;;;;;3.38;0.90;;;21.80;99.90;;;;;;4972567;28;20062;-79
2022/06/05 13:17:38;;;;;;;3.22;1.00;;;21.60;99.90;;;;;;4986481;28;20391;-79
2022/06/05 13:20:20;;;;;;;3.28;0.90;;;21.70;99.90;;;;;;4991238;28;20041;-79
2022/06/05 13:23:11;;;;;;;3.28;0.77;;;21.80;99.90;;;;;;4991212;28;20049;-79
2022/06/05 13:26:16;;;;;;;2.88;0.75;;;21.80;99.90;;;;;;4989795;28;20026;-79
2022/06/05 13:29:11;;;;;;;5.25;1.00;;;22.00;99.90;;;;;;4965685;28;20057;-79
2022/06/05 13:32:11;;;;;;;3.65;0.80;;;22.20;99.90;;;;;;4972129;28;20058;-77